Terminal Aerodrome Forecast
Issued by NWS

Home | Current Version | Previous Version | Text Only | Print | Product List | Glossary On
Versions: 1 2 3 4 5 6 7 8 9 10 11 12 13 14 15
000
FTUS44 KLIX 270531
TAFMSY
TAF
KMSY 270531Z 2706/2806 29010KT P6SM OVC011
     FM270800 33011G19KT P6SM BKN012 OVC025
     FM271200 35013G23KT P6SM FEW250
     FM271800 35016KT P6SM SKC
     FM280100 33014G27KT P6SM FEW250=

USA.gov is the U.S. government's official web portal to all federal, state and local government web resources and services.